Create Custom Reports and Graphics: Custom Report

Napa County - North

Yesterday's Weather Data Summary

Daily Data
as of 2/16/20 10:56 PM PST
Station Date Daily Max Temp (°F) Max Temp Time Daily Min Temp (°F) Min Temp Time Dew Pt (°F) Max RH (%) Min RH (%) Wind Spd (mph) Daily Max Wind (mph) Max Wind Time Max Wind Dir (°) Daily Rain (In) Seasonal Rainfall (In) Daily ETo (in) Daily Solar Rad (Cal/cm2) Powdery Mildew Stress (pts)
Pope Valley - Weeks Lake 2/15/20 69.7   1.7 1522 31.7   0.6 0457 39.4   0.6 100   0 36   0 1.1 7.7   0.4 1550 SSW | 192 0.00 12.86 0.073   0.001 295   10 0   0
Dollarhide - STS 2/15/20 69.8   2.0 1526 34.6   0.9 0711 42.9   0.8 100   0 39   7 2.0 12.5   1.1 1552 SSW | 209 0.00 10.72 0.080   0.003 308   8 0   0
1AS Remote - STS 2/15/20 70.5   1.2 1458 32.2   0.4 0538 40.4   0.9 100   0 37   6 1.4 8.7   0.4 1552 SSW | 212 - - - - 0   0
17B Remote - STS 5/18/19 51.7 2158 49.5 0040 49.7 100 86 - - - - - - - - 0
18A Remote - STS 2/15/20 69.8   0.0 1434 31.1   0.2 0541 40.1   0.8 100   0 36   6 - - - - - - - - 0   0
Angwin (ANG) 12/31/19 60.6   8.9 1321 47.1   10.2 0150 33.3   3.8 65   35 32   20 8.6 28.2   0.5 0608 N | 0 0.00 14.17 0.088   0.048 313   584 -
Brown Estate-Lower Chiles Valley 2/15/20 68.5   1.6 1343 31.4   2.7 0716 39.6   1.8 100   0 36   3 1.2 10.9   0.3 1227 NNE | 19 0.00 10.67 0.085   0.000 329   11 0   0
Moss Creek Vineyard 2/15/20 68.5   0.6 1440 36.1   0.7 0446 41.8   0.1 100   0 40   6 - - - - 0.00 11.14 - - 0   0
Max   70.5 - 36.1 - 42.9 100 40 2.0 12.5 - - 0.00 - 0.085 329 0
Avg   - - - - 40.7 - - 1.4 - - - - - - - -
Min   68.5 - 31.1 - 39.4 100 36 1.1 7.7 - - 0.00 - 0.073 295 0

Northern Napa Valley

Yesterday's Weather Data Summary

Daily Data | America/Los_Angeles
as of 2/16/20 10:56 PM PST
Station Date Daily Max Temp (°F) Max Temp Time Daily Min Temp (°F) Min Temp Time Dew Pt (°F) Max RH (%) Min RH (%) Wind Spd (mph) Daily Max Wind (mph) Max Wind Time Max Wind Dir (°) Daily Rain (In) Seasonal Rainfall (In) Daily ETo (in) Daily Solar Rad (Cal/cm2) Powdery Mildew Stress (pts)
Calistoga 2/15/20 68.1   0.4 1605 35.8   5.2 0541 41.0   3.4 100   1 35   6 - - - - 0.00 15.23 - - 0   0
St. Helena (TSH) 2/10/20 77.1   13.0 1411 38.5   4.9 0342 26.1   3.8 64   11 13   6 2.6 20.0   2.9 1247 NW | 311 0.00 15.12 0.070   0.007 309   2 0   0
Rutherford Hill - Estate 2/15/20 68.6   0.2 1621 42.3   1.6 0513 43.6   1.1 100   5 38   4 1.5 9.9   1.8 2043 NNW | 344 0.00 10.21 0.075   0.003 307   14 0   0
Mee Lane - MKV 2/15/20 68.3   1.0 1445 35.9   5.6 0714 43.4   1.0 100   1 39   2 1.9 9.2   0.4 1439 S | 174 0.00 10.87 0.071   0.001 267   13 0   0
Rutherford - STS 2/15/20 69.3   1.6 1353 35.5   5.9 0701 44.5   1.3 100   0 38   4 1.9 8.9   0.5 1500 ESE | 119 0.00 11.80 0.079   0.003 302   13 0   0
Skellenger 2/15/20 66.4   0.9 1341 34.1   6.2 0625 41.9   2.0 98   3 41   2 1.3 9.5   1.0 1458 S | 179 0.00 10.70 0.069   0.001 264   14 0   0
To Kalon 2/15/20 67.5   1.6 1438 36.3   5.5 0552 43.4   1.2 100   2 41   2 1.8 9.4   1.1 1422 SSE | 166 0.00 11.97 0.084   0.000 337   5 0   0
Wappo Hill 2/15/20 66.9   0.8 1430 36.8   4.9 0653 43.6   1.3 100   1 44   0 1.8 8.8   1.1 1500 SE | 129 0.00 10.87 0.082   0.002 332   14 0   0
Stags Leap District - Chimney Rock 2/15/20 69.0   1.6 1441 35.6   4.9 0417 42.5   1.5 100   4 39   4 1.7 9.9   0.9 1432 ESE | 116 0.00 11.03 0.076   0.001 312   8 0   0
Hunter Ranch 53 2/15/20 67.2   0.1 1529 36.8   4.7 0713 42.9   1.4 99   2 40   3 1.4 9.0   0.6 1452 SSE | 162 0.00 10.11 0.079   0.000 326   6 0   0
Max   69.3 - 42.3 - 44.5 100 44 1.9 9.9 - - 0.00 - 0.084 337 0
Avg   - - - - 43.0 - - 1.7 - - - - - - - -
Min   66.4 - 34.1 - 41.0 98 35 1.3 8.8 - - 0.00 - 0.069 264 0

Napa County - South

17 Stations

Daily Data | America/Los_Angeles
as of 2/16/20 10:56 PM PST
Station Date Daily Max Temp (°F) Max Temp Time Daily Min Temp (°F) Min Temp Time Dew Pt (°F) Max RH (%) Min RH (%) Wind Spd (mph) Daily Max Wind (mph) Max Wind Time Max Wind Dir (°) Daily Rain (In) Seasonal Rainfall (In) Daily ETo (in) Daily Solar Rad (Cal/cm2) Powdery Mildew Stress (pts)
Mt. Veeder 2/15/20 62.0   1.5 1236 46.7   7.7 0522 41.2   1.2 90   10 22   26 1.5 7.5   3.0 1011 NNE | 14 0.00 16.84 0.048   0.006 144   5 0   0
Palmaz 300' 2/15/20 71.2   0.1 1452 38.5   4.7 0543 44.0   0.8 100   1 38   3 1.3 7.5   2.4 1354 WSW | 253 0.00 7.89 0.078   0.001 304   2 0   0
Palmaz 1200' 2/15/20 62.1   0.2 1455 38.6   2.3 0650 43.0   0.6 100   0 52   4 2.2 9.0   0.3 1358 WNW | 300 - - 0.073   0.001 319   0 0   0
Palmaz 1400' 2/15/20 62.0   1.1 1312 39.4   0.5 0705 43.4   0.4 100   0 45   11 2.2 10.6   0.2 2241 WNW | 291 0.00 10.51 0.081   0.003 344   1 0   0
Truchard Base 2/15/20 67.0   0.9 1553 41.4   4.5 0639 46.6   0.6 100   0 41   8 2.3 8.9   0.2 1510 SSW | 193 0.00 10.71 0.079   0.002 329   2 0   0
Truchard Remote 2/15/20 67.5   1.7 1550 35.6   3.0 0611 43.3   1.4 100   0 40   10 - - - - - - - - 0   0
Toyon Base (Napa South) 2/15/20 66.4   0.4 1617 39.8   4.7 0718 45.0   0.6 97   3 44   9 1.5 9.5   1.4 1358 S | 180 0.00 9.26 0.051   0.000 216   10 0   0
Toyon Remote 1 2/15/20 65.7   0.1 1546 37.0   4.2 0713 - - - - - - - - - - - -
Toyon Remote 2 2/15/20 66.8   0.9 1558 35.6   2.4 0410 - - - - - - - - - - - -
Toyon Remote 3 2/15/20 68.6   0.7 1554 36.8   3.8 0711 - - - - - - - - - - - -
Saintsbury Winery 2/15/20 68.3   1.7 1557 38.5   4.9 0711 45.2   0.6 100   0 37   12 1.9 8.5   0.4 1639 SSW | 193 0.00 8.73 - - 0   0
Napa-SE 2/15/20 67.6   1.0 1601 37.9   5.5 0632 43.5   1.0 99   4 33   15 2.9 8.6   1.3 1215 SW | 224 0.00 8.09 0.070   0.004 285   18 0   0
Suscol Mtn 2/15/20 63.1   0.4 1513 44.8   1.3 0726 45.0   0.6 - - 3.0 13.2   0.8 2233 NW | 323 0.00 8.44 0.078   0.002 668   35 0   0
Napa-SE Upper 2/15/20 64.7   1.2 1558 46.3   1.2 0721 45.5   0.9 100   7 35   18 3.3 10.3   0.5 1928 SSE | 152 0.00 8.37 - - 0   0
Stanly Ranch 45 2/15/20 69.1   1.8 1548 39.9   1.3 0721 43.9   0.5 98   1 25   21 2.2 9.1   0.4 0511 N | 11 0.00 8.81 0.076   0.007 312   26 0   0
Huichica Upper 2/15/20 66.3   0.3 1517 43.1   2.8 0703 44.2   0.3 96   3 38   8 4.5 13.8   0.5 2025 W | 281 - - - - 0   0
Huichica-Lower 2/15/20 67.8   1.4 1544 38.4   4.8 0653 43.5   1.4 100   4 37   11 1.6 7.3   1.8 1307 S | 173 0.00 12.47 0.076   0.004 631   50 0   0
Max   71.2 - 46.7 - 46.6 100 52 4.5 13.8 - - 0.00 - 0.081 668 0
Avg   - - - - 44.1 - - 2.3 - - - - - - - -
Min   62.0 - 35.6 - 41.2 90 22 1.3 7.3 - - 0.00 - 0.048 144 0